sensor_id;sensor_type;location;lat;lon;timestamp;pressure;altitude;pressure_sealevel;temperature;humidity
48424;BME280;34232;42.502;26.014;2023-02-28T00:02:19;100748.56;;;10.04;91.38
48424;BME280;34232;42.502;26.014;2023-02-28T00:04:44;100750.88;;;9.96;93.07
48424;BME280;34232;42.502;26.014;2023-02-28T00:07:10;100757.28;;;9.92;93.45
48424;BME280;34232;42.502;26.014;2023-02-28T00:09:35;100755.84;;;9.88;93.44
48424;BME280;34232;42.502;26.014;2023-02-28T00:12:00;100758.88;;;9.81;93.16
48424;BME280;34232;42.502;26.014;2023-02-28T00:14:35;100758.88;;;9.81;93.43
48424;BME280;34232;42.502;26.014;2023-02-28T00:17:00;100762.25;;;9.83;93.52
48424;BME280;34232;42.502;26.014;2023-02-28T00:19:25;100763.63;;;10.02;93.63
48424;BME280;34232;42.502;26.014;2023-02-28T00:21:51;100762.66;;;10.15;91.73
48424;BME280;34232;42.502;26.014;2023-02-28T00:24:16;100760.88;;;10.29;89.78
48424;BME280;34232;42.502;26.014;2023-02-28T00:26:41;100763.28;;;10.44;89.91
48424;BME280;34232;42.502;26.014;2023-02-28T00:29:06;100754.97;;;10.50;89.00
48424;BME280;34232;42.502;26.014;2023-02-28T00:31:32;100741.59;;;10.54;88.27
48424;BME280;34232;42.502;26.014;2023-02-28T00:33:57;100752.75;;;10.44;88.60
48424;BME280;34232;42.502;26.014;2023-02-28T00:36:23;100755.31;;;10.33;89.38
48424;BME280;34232;42.502;26.014;2023-02-28T00:38:48;100757.63;;;10.25;89.73
48424;BME280;34232;42.502;26.014;2023-02-28T00:41:13;100749.00;;;10.23;90.04
48424;BME280;34232;42.502;26.014;2023-02-28T00:43:39;100749.59;;;10.14;90.10
48424;BME280;34232;42.502;26.014;2023-02-28T00:46:04;100737.19;;;10.16;89.86
48424;BME280;34232;42.502;26.014;2023-02-28T00:48:30;100743.50;;;10.13;90.17
48424;BME280;34232;42.502;26.014;2023-02-28T00:50:55;100748.97;;;10.10;90.07
48424;BME280;34232;42.502;26.014;2023-02-28T00:53:21;100744.97;;;10.17;89.43
48424;BME280;34232;42.502;26.014;2023-02-28T00:55:47;100755.53;;;10.05;89.30
48424;BME280;34232;42.502;26.014;2023-02-28T00:58:12;100768.97;;;10.00;89.03
48424;BME280;34232;42.502;26.014;2023-02-28T01:00:37;100767.00;;;10.04;88.54
48424;BME280;34232;42.502;26.014;2023-02-28T01:03:02;100772.25;;;10.04;88.61
48424;BME280;34232;42.502;26.014;2023-02-28T01:05:28;100782.44;;;9.96;88.79
48424;BME280;34232;42.502;26.014;2023-02-28T01:07:53;100784.84;;;9.86;89.21
48424;BME280;34232;42.502;26.014;2023-02-28T01:10:18;100783.88;;;9.74;89.37
48424;BME280;34232;42.502;26.014;2023-02-28T01:12:45;100785.25;;;9.67;89.93
48424;BME280;34232;42.502;26.014;2023-02-28T01:15:11;100792.47;;;9.51;90.22
48424;BME280;34232;42.502;26.014;2023-02-28T01:17:36;100790.88;;;9.48;91.12
48424;BME280;34232;42.502;26.014;2023-02-28T01:20:01;100798.31;;;9.42;92.21
48424;BME280;34232;42.502;26.014;2023-02-28T01:22:27;100801.50;;;9.47;92.27
48424;BME280;34232;42.502;26.014;2023-02-28T01:24:53;100813.19;;;9.56;90.75
48424;BME280;34232;42.502;26.014;2023-02-28T01:27:19;100815.94;;;9.54;90.32
48424;BME280;34232;42.502;26.014;2023-02-28T01:29:44;100830.53;;;9.58;90.17
48424;BME280;34232;42.502;26.014;2023-02-28T01:32:09;100836.41;;;9.49;90.17
48424;BME280;34232;42.502;26.014;2023-02-28T01:34:35;100838.94;;;9.51;90.23
48424;BME280;34232;42.502;26.014;2023-02-28T01:37:00;100833.22;;;9.44;90.17
48424;BME280;34232;42.502;26.014;2023-02-28T01:39:26;100835.09;;;9.42;89.22
48424;BME280;34232;42.502;26.014;2023-02-28T01:41:51;100829.97;;;9.40;89.84
48424;BME280;34232;42.502;26.014;2023-02-28T01:47:01;100820.94;;;9.18;90.38
48424;BME280;34232;42.502;26.014;2023-02-28T01:49:26;100823.66;;;9.16;91.34
48424;BME280;34232;42.502;26.014;2023-02-28T01:51:52;100822.06;;;9.13;91.70
48424;BME280;34232;42.502;26.014;2023-02-28T01:54:26;100836.03;;;9.14;90.93
48424;BME280;34232;42.502;26.014;2023-02-28T01:56:56;100839.19;;;9.06;91.20
48424;BME280;34232;42.502;26.014;2023-02-28T01:59:36;100826.13;;;9.05;91.38
48424;BME280;34232;42.502;26.014;2023-02-28T02:02:05;100820.63;;;8.95;91.23
48424;BME280;34232;42.502;26.014;2023-02-28T02:07:19;100820.97;;;9.03;91.75
48424;BME280;34232;42.502;26.014;2023-02-28T02:09:45;100833.41;;;9.14;90.52
48424;BME280;34232;42.502;26.014;2023-02-28T02:12:15;100839.41;;;9.16;89.93
48424;BME280;34232;42.502;26.014;2023-02-28T02:17:48;100836.31;;;9.24;90.01
48424;BME280;34232;42.502;26.014;2023-02-28T02:20:22;100832.94;;;9.22;89.64
48424;BME280;34232;42.502;26.014;2023-02-28T02:22:54;100842.91;;;9.17;89.33
48424;BME280;34232;42.502;26.014;2023-02-28T02:35:35;100851.63;;;9.17;89.18
48424;BME280;34232;42.502;26.014;2023-02-28T02:40:35;100863.72;;;9.20;89.08
48424;BME280;34232;42.502;26.014;2023-02-28T02:46:08;100857.72;;;9.18;88.38
48424;BME280;34232;42.502;26.014;2023-02-28T02:48:35;100863.16;;;9.15;88.42
48424;BME280;34232;42.502;26.014;2023-02-28T02:51:04;100861.47;;;9.13;88.85
48424;BME280;34232;42.502;26.014;2023-02-28T02:53:37;100864.28;;;9.10;88.67
48424;BME280;34232;42.502;26.014;2023-02-28T02:56:06;100861.66;;;9.10;88.90
48424;BME280;34232;42.502;26.014;2023-02-28T02:58:33;100856.81;;;9.04;89.72
48424;BME280;34232;42.502;26.014;2023-02-28T03:01:01;100855.50;;;8.97;90.22
48424;BME280;34232;42.502;26.014;2023-02-28T03:03:27;100857.78;;;8.89;90.27
48424;BME280;34232;42.502;26.014;2023-02-28T03:05:55;100862.84;;;8.92;90.14
48424;BME280;34232;42.502;26.014;2023-02-28T03:08:21;100872.03;;;8.85;90.81
48424;BME280;34232;42.502;26.014;2023-02-28T03:10:50;100876.91;;;8.91;91.11
48424;BME280;34232;42.502;26.014;2023-02-28T03:15:54;100881.69;;;8.85;90.86
48424;BME280;34232;42.502;26.014;2023-02-28T03:23:45;100871.19;;;8.56;92.62
48424;BME280;34232;42.502;26.014;2023-02-28T03:26:20;100875.78;;;8.53;93.53
48424;BME280;34232;42.502;26.014;2023-02-28T03:33:44;100874.28;;;8.49;93.86
48424;BME280;34232;42.502;26.014;2023-02-28T03:36:18;100874.75;;;8.55;93.84
48424;BME280;34232;42.502;26.014;2023-02-28T03:38:46;100877.19;;;8.58;93.71
48424;BME280;34232;42.502;26.014;2023-02-28T03:41:17;100861.72;;;8.54;93.74
48424;BME280;34232;42.502;26.014;2023-02-28T03:43:53;100880.28;;;8.51;93.97
48424;BME280;34232;42.502;26.014;2023-02-28T03:46:21;100882.13;;;8.34;94.59
48424;BME280;34232;42.502;26.014;2023-02-28T03:49:07;100886.69;;;8.31;95.43
48424;BME280;34232;42.502;26.014;2023-02-28T03:51:36;100888.84;;;8.24;95.90
48424;BME280;34232;42.502;26.014;2023-02-28T03:54:07;100880.56;;;8.16;96.64
48424;BME280;34232;42.502;26.014;2023-02-28T03:56:38;100896.47;;;8.13;96.54
48424;BME280;34232;42.502;26.014;2023-02-28T03:59:25;100891.06;;;8.16;97.15
48424;BME280;34232;42.502;26.014;2023-02-28T04:01:52;100886.75;;;8.15;96.94
48424;BME280;34232;42.502;26.014;2023-02-28T04:04:19;100893.00;;;8.13;97.67
48424;BME280;34232;42.502;26.014;2023-02-28T04:06:45;100891.63;;;8.21;97.09
48424;BME280;34232;42.502;26.014;2023-02-28T04:09:11;100885.19;;;8.27;95.95
48424;BME280;34232;42.502;26.014;2023-02-28T04:11:38;100905.69;;;8.20;96.42
48424;BME280;34232;42.502;26.014;2023-02-28T04:14:13;100899.09;;;8.13;96.99
48424;BME280;34232;42.502;26.014;2023-02-28T04:16:39;100911.47;;;8.11;97.02
48424;BME280;34232;42.502;26.014;2023-02-28T04:19:06;100909.78;;;8.10;96.85
48424;BME280;34232;42.502;26.014;2023-02-28T04:21:32;100924.59;;;8.11;97.58
48424;BME280;34232;42.502;26.014;2023-02-28T04:23:58;100921.75;;;8.14;97.40
48424;BME280;34232;42.502;26.014;2023-02-28T04:26:27;100926.50;;;8.23;96.90
48424;BME280;34232;42.502;26.014;2023-02-28T04:28:53;100925.81;;;8.20;96.86
48424;BME280;34232;42.502;26.014;2023-02-28T04:31:18;100930.41;;;8.16;96.64
48424;BME280;34232;42.502;26.014;2023-02-28T04:33:43;100918.03;;;8.18;97.35
48424;BME280;34232;42.502;26.014;2023-02-28T04:36:08;100924.38;;;8.14;96.75
48424;BME280;34232;42.502;26.014;2023-02-28T04:38:35;100922.91;;;8.10;96.94
48424;BME280;34232;42.502;26.014;2023-02-28T04:41:00;100925.31;;;8.13;97.24
48424;BME280;34232;42.502;26.014;2023-02-28T04:43:29;100923.84;;;8.09;96.96
48424;BME280;34232;42.502;26.014;2023-02-28T04:45:55;100927.78;;;8.16;96.69
48424;BME280;34232;42.502;26.014;2023-02-28T04:48:24;100927.59;;;8.19;96.19
48424;BME280;34232;42.502;26.014;2023-02-28T04:50:49;100933.00;;;8.16;96.05
48424;BME280;34232;42.502;26.014;2023-02-28T04:53:15;100928.34;;;8.21;96.17
48424;BME280;34232;42.502;26.014;2023-02-28T04:55:40;100941.72;;;8.17;95.93
48424;BME280;34232;42.502;26.014;2023-02-28T04:58:05;100947.94;;;8.30;95.73
48424;BME280;34232;42.502;26.014;2023-02-28T05:00:31;100957.44;;;8.32;95.38
48424;BME280;34232;42.502;26.014;2023-02-28T05:02:56;100948.78;;;8.30;95.18
48424;BME280;34232;42.502;26.014;2023-02-28T05:05:21;100955.91;;;8.28;95.00
48424;BME280;34232;42.502;26.014;2023-02-28T05:07:47;100957.78;;;8.26;95.19
48424;BME280;34232;42.502;26.014;2023-02-28T05:10:12;100966.75;;;8.22;94.82
48424;BME280;34232;42.502;26.014;2023-02-28T05:12:37;100960.00;;;8.18;94.90
48424;BME280;34232;42.502;26.014;2023-02-28T05:15:04;100970.81;;;8.12;95.59
48424;BME280;34232;42.502;26.014;2023-02-28T05:17:30;100964.09;;;8.08;96.29
48424;BME280;34232;42.502;26.014;2023-02-28T05:19:55;100976.69;;;8.01;96.62
48424;BME280;34232;42.502;26.014;2023-02-28T05:22:20;100974.00;;;8.03;96.99
48424;BME280;34232;42.502;26.014;2023-02-28T05:24:45;100971.50;;;8.16;96.47
48424;BME280;34232;42.502;26.014;2023-02-28T05:27:11;100972.19;;;8.19;95.71
48424;BME280;34232;42.502;26.014;2023-02-28T05:29:36;100976.59;;;8.19;95.50
48424;BME280;34232;42.502;26.014;2023-02-28T05:32:08;100981.16;;;8.15;95.76
48424;BME280;34232;42.502;26.014;2023-02-28T05:34:33;100989.94;;;8.14;95.64
48424;BME280;34232;42.502;26.014;2023-02-28T05:36:58;100995.56;;;8.08;95.75
48424;BME280;34232;42.502;26.014;2023-02-28T05:39:23;100995.72;;;8.05;96.19
48424;BME280;34232;42.502;26.014;2023-02-28T05:41:49;100996.06;;;7.99;96.41
48424;BME280;34232;42.502;26.014;2023-02-28T05:44:14;100993.38;;;8.00;96.96
48424;BME280;34232;42.502;26.014;2023-02-28T05:46:40;101006.00;;;7.94;96.96
48424;BME280;34232;42.502;26.014;2023-02-28T05:49:05;101004.28;;;7.93;97.34
48424;BME280;34232;42.502;26.014;2023-02-28T05:51:32;101011.63;;;8.02;97.36
48424;BME280;34232;42.502;26.014;2023-02-28T05:53:59;101012.22;;;8.07;96.94
48424;BME280;34232;42.502;26.014;2023-02-28T05:56:25;101010.09;;;8.14;96.62
48424;BME280;34232;42.502;26.014;2023-02-28T05:58:50;101018.53;;;8.19;95.99
48424;BME280;34232;42.502;26.014;2023-02-28T06:01:23;101022.94;;;8.18;95.93
48424;BME280;34232;42.502;26.014;2023-02-28T06:03:49;101020.91;;;8.23;96.01
48424;BME280;34232;42.502;26.014;2023-02-28T06:06:14;101017.00;;;8.30;96.17
48424;BME280;34232;42.502;26.014;2023-02-28T06:08:39;101030.56;;;8.38;95.30
48424;BME280;34232;42.502;26.014;2023-02-28T06:11:05;101021.75;;;8.39;95.04
48424;BME280;34232;42.502;26.014;2023-02-28T06:13:30;101019.03;;;8.41;95.04
48424;BME280;34232;42.502;26.014;2023-02-28T06:15:55;101027.94;;;8.38;94.81
48424;BME280;34232;42.502;26.014;2023-02-28T06:18:21;101024.72;;;8.33;94.56
48424;BME280;34232;42.502;26.014;2023-02-28T06:20:52;101037.84;;;8.33;94.98
48424;BME280;34232;42.502;26.014;2023-02-28T06:23:19;101034.28;;;8.34;95.21
48424;BME280;34232;42.502;26.014;2023-02-28T06:25:45;101030.91;;;8.32;95.14
48424;BME280;34232;42.502;26.014;2023-02-28T06:28:10;101026.50;;;8.33;95.68
48424;BME280;34232;42.502;26.014;2023-02-28T06:30:36;101027.84;;;8.40;95.09
48424;BME280;34232;42.502;26.014;2023-02-28T06:33:02;101030.06;;;8.32;95.01
48424;BME280;34232;42.502;26.014;2023-02-28T06:35:27;101033.78;;;8.44;95.08
48424;BME280;34232;42.502;26.014;2023-02-28T06:37:52;101035.63;;;8.41;94.25
48424;BME280;34232;42.502;26.014;2023-02-28T06:40:17;101026.91;;;8.41;93.56
48424;BME280;34232;42.502;26.014;2023-02-28T06:42:43;101023.44;;;8.40;94.15
48424;BME280;34232;42.502;26.014;2023-02-28T06:45:10;101026.84;;;8.43;93.97
48424;BME280;34232;42.502;26.014;2023-02-28T06:47:36;101026.63;;;8.46;94.18
48424;BME280;34232;42.502;26.014;2023-02-28T06:50:02;101029.75;;;8.52;93.66
48424;BME280;34232;42.502;26.014;2023-02-28T06:52:27;101033.06;;;8.56;93.18
48424;BME280;34232;42.502;26.014;2023-02-28T06:54:52;101032.50;;;8.65;93.66
48424;BME280;34232;42.502;26.014;2023-02-28T06:57:25;101025.72;;;8.61;92.35
48424;BME280;34232;42.502;26.014;2023-02-28T06:59:52;101036.72;;;8.67;93.52
48424;BME280;34232;42.502;26.014;2023-02-28T07:02:17;101037.91;;;8.62;92.56
48424;BME280;34232;42.502;26.014;2023-02-28T07:04:42;101041.31;;;8.64;93.46
48424;BME280;34232;42.502;26.014;2023-02-28T07:07:09;101049.75;;;8.69;92.58
48424;BME280;34232;42.502;26.014;2023-02-28T07:09:34;101056.50;;;8.59;93.08
48424;BME280;34232;42.502;26.014;2023-02-28T07:12:00;101050.66;;;8.54;92.83
48424;BME280;34232;42.502;26.014;2023-02-28T07:14:25;101063.19;;;8.49;92.80
48424;BME280;34232;42.502;26.014;2023-02-28T07:16:51;101057.78;;;8.52;93.46
48424;BME280;34232;42.502;26.014;2023-02-28T07:19:16;101055.91;;;8.54;93.55
48424;BME280;34232;42.502;26.014;2023-02-28T07:21:42;101057.22;;;8.61;93.56
48424;BME280;34232;42.502;26.014;2023-02-28T07:24:07;101059.28;;;8.56;93.09
48424;BME280;34232;42.502;26.014;2023-02-28T07:26:32;101064.72;;;8.53;92.72
48424;BME280;34232;42.502;26.014;2023-02-28T07:28:59;101065.00;;;8.62;92.93
48424;BME280;34232;42.502;26.014;2023-02-28T07:31:25;101062.09;;;8.53;91.91
48424;BME280;34232;42.502;26.014;2023-02-28T07:33:50;101063.03;;;8.52;91.72
48424;BME280;34232;42.502;26.014;2023-02-28T07:36:16;101061.31;;;8.51;91.85
48424;BME280;34232;42.502;26.014;2023-02-28T07:38:43;101056.09;;;8.51;91.99
48424;BME280;34232;42.502;26.014;2023-02-28T07:41:09;101049.31;;;8.47;92.18
48424;BME280;34232;42.502;26.014;2023-02-28T07:43:35;101058.63;;;8.52;92.05
48424;BME280;34232;42.502;26.014;2023-02-28T07:46:04;101057.78;;;8.52;91.75
48424;BME280;34232;42.502;26.014;2023-02-28T07:48:29;101053.13;;;8.57;91.97
48424;BME280;34232;42.502;26.014;2023-02-28T07:50:55;101050.88;;;8.65;91.48
48424;BME280;34232;42.502;26.014;2023-02-28T07:53:20;101042.66;;;8.71;91.36
48424;BME280;34232;42.502;26.014;2023-02-28T07:55:46;101047.16;;;8.83;90.96
48424;BME280;34232;42.502;26.014;2023-02-28T07:58:11;101045.31;;;8.85;90.35
48424;BME280;34232;42.502;26.014;2023-02-28T08:00:36;101046.25;;;8.98;89.66
48424;BME280;34232;42.502;26.014;2023-02-28T08:03:01;101047.78;;;9.02;88.79
48424;BME280;34232;42.502;26.014;2023-02-28T08:05:27;101047.78;;;9.02;88.35
48424;BME280;34232;42.502;26.014;2023-02-28T08:07:52;101049.16;;;8.94;87.25
48424;BME280;34232;42.502;26.014;2023-02-28T08:10:18;101053.00;;;8.88;87.83
48424;BME280;34232;42.502;26.014;2023-02-28T08:12:43;101060.56;;;8.78;88.18
48424;BME280;34232;42.502;26.014;2023-02-28T08:15:09;101059.38;;;8.84;88.40
48424;BME280;34232;42.502;26.014;2023-02-28T08:17:34;101057.22;;;8.76;88.54
48424;BME280;34232;42.502;26.014;2023-02-28T08:19:59;101051.28;;;8.73;89.03
48424;BME280;34232;42.502;26.014;2023-02-28T08:22:25;101055.19;;;8.66;88.70
48424;BME280;34232;42.502;26.014;2023-02-28T08:24:50;101059.50;;;8.67;89.21
48424;BME280;34232;42.502;26.014;2023-02-28T08:27:15;101058.56;;;8.68;88.81
48424;BME280;34232;42.502;26.014;2023-02-28T08:29:40;101053.16;;;8.71;88.93
48424;BME280;34232;42.502;26.014;2023-02-28T08:32:06;101051.63;;;8.67;88.81
48424;BME280;34232;42.502;26.014;2023-02-28T08:34:31;101050.63;;;8.69;88.48
48424;BME280;34232;42.502;26.014;2023-02-28T08:36:57;101049.41;;;8.75;88.34
48424;BME280;34232;42.502;26.014;2023-02-28T08:39:22;101053.44;;;8.81;88.21
48424;BME280;34232;42.502;26.014;2023-02-28T08:41:47;101055.03;;;8.83;88.35
48424;BME280;34232;42.502;26.014;2023-02-28T08:44:13;101059.78;;;8.92;88.69
48424;BME280;34232;42.502;26.014;2023-02-28T08:46:38;101068.78;;;9.02;88.08
48424;BME280;34232;42.502;26.014;2023-02-28T08:49:04;101065.22;;;9.03;87.30
48424;BME280;34232;42.502;26.014;2023-02-28T08:51:29;101054.63;;;9.05;88.20
48424;BME280;34232;42.502;26.014;2023-02-28T08:53:55;101053.97;;;9.16;88.26
48424;BME280;34232;42.502;26.014;2023-02-28T08:56:21;101051.34;;;9.30;87.63
48424;BME280;34232;42.502;26.014;2023-02-28T08:58:46;101062.63;;;9.32;86.78
48424;BME280;34232;42.502;26.014;2023-02-28T09:01:14;101061.31;;;9.39;87.47
48424;BME280;34232;42.502;26.014;2023-02-28T09:03:40;101066.94;;;9.47;87.38
48424;BME280;34232;42.502;26.014;2023-02-28T09:06:06;101060.91;;;9.45;86.51
48424;BME280;34232;42.502;26.014;2023-02-28T09:08:32;101062.44;;;9.35;85.83
48424;BME280;34232;42.502;26.014;2023-02-28T09:10:57;101060.91;;;9.45;86.66
48424;BME280;34232;42.502;26.014;2023-02-28T09:13:24;101064.13;;;9.50;87.38
48424;BME280;34232;42.502;26.014;2023-02-28T09:15:50;101064.19;;;9.63;87.15
48424;BME280;34232;42.502;26.014;2023-02-28T09:18:15;101063.53;;;9.59;86.13
48424;BME280;34232;42.502;26.014;2023-02-28T09:20:41;101072.00;;;9.64;85.68
48424;BME280;34232;42.502;26.014;2023-02-28T09:23:07;101072.72;;;9.80;85.67
48424;BME280;34232;42.502;26.014;2023-02-28T09:25:33;101067.66;;;9.77;83.98
48424;BME280;34232;42.502;26.014;2023-02-28T09:27:58;101071.97;;;9.78;84.10
48424;BME280;34232;42.502;26.014;2023-02-28T09:30:23;101074.25;;;9.70;83.56
48424;BME280;34232;42.502;26.014;2023-02-28T09:32:49;101074.19;;;9.58;84.28
48424;BME280;34232;42.502;26.014;2023-02-28T09:35:17;101073.88;;;9.62;84.71
48424;BME280;34232;42.502;26.014;2023-02-28T09:37:42;101069.34;;;9.64;85.86
48424;BME280;34232;42.502;26.014;2023-02-28T09:40:08;101067.13;;;9.72;85.13
48424;BME280;34232;42.502;26.014;2023-02-28T09:42:34;101068.91;;;9.72;84.55
48424;BME280;34232;42.502;26.014;2023-02-28T09:45:05;101069.09;;;9.69;84.25
48424;BME280;34232;42.502;26.014;2023-02-28T09:49:58;101065.78;;;9.79;84.55
48424;BME280;34232;42.502;26.014;2023-02-28T09:52:30;101060.13;;;9.86;85.87
48424;BME280;34232;42.502;26.014;2023-02-28T09:54:58;101053.75;;;9.90;84.33
48424;BME280;34232;42.502;26.014;2023-02-28T10:00:07;101056.59;;;10.13;83.78
48424;BME280;34232;42.502;26.014;2023-02-28T10:05:24;101057.81;;;10.22;82.77
48424;BME280;34232;42.502;26.014;2023-02-28T10:12:59;101033.16;;;10.23;81.60
48424;BME280;34232;42.502;26.014;2023-02-28T10:15:26;101026.28;;;10.35;81.94
48424;BME280;34232;42.502;26.014;2023-02-28T10:17:55;101030.72;;;10.47;81.95
48424;BME280;34232;42.502;26.014;2023-02-28T10:20:22;101035.34;;;10.43;81.17
48424;BME280;34232;42.502;26.014;2023-02-28T10:25:23;101024.31;;;10.38;81.91
48424;BME280;34232;42.502;26.014;2023-02-28T10:27:49;101021.34;;;10.43;82.34
48424;BME280;34232;42.502;26.014;2023-02-28T10:30:18;101017.06;;;10.55;82.30
48424;BME280;34232;42.502;26.014;2023-02-28T10:32:46;101010.31;;;10.50;80.30
48424;BME280;34232;42.502;26.014;2023-02-28T10:35:16;100997.25;;;10.62;81.58
48424;BME280;34232;42.502;26.014;2023-02-28T10:37:43;100985.91;;;10.74;81.72
48424;BME280;34232;42.502;26.014;2023-02-28T10:40:32;100982.94;;;10.91;81.82
48424;BME280;34232;42.502;26.014;2023-02-28T10:45:26;100978.31;;;11.07;79.97
48424;BME280;34232;42.502;26.014;2023-02-28T10:47:58;100972.19;;;11.07;78.49
48424;BME280;34232;42.502;26.014;2023-02-28T10:50:29;100975.16;;;11.02;77.95
48424;BME280;34232;42.502;26.014;2023-02-28T10:52:55;100979.81;;;10.86;78.92
48424;BME280;34232;42.502;26.014;2023-02-28T10:55:30;100976.75;;;10.67;79.53
48424;BME280;34232;42.502;26.014;2023-02-28T10:57:56;100973.38;;;10.65;80.37
48424;BME280;34232;42.502;26.014;2023-02-28T11:00:23;100976.75;;;10.67;80.51
48424;BME280;34232;42.502;26.014;2023-02-28T11:02:50;100980.63;;;10.74;79.89
48424;BME280;34232;42.502;26.014;2023-02-28T11:05:25;100978.94;;;10.73;79.10
48424;BME280;34232;42.502;26.014;2023-02-28T11:07:54;100982.31;;;10.75;79.57
48424;BME280;34232;42.502;26.014;2023-02-28T11:10:21;100980.63;;;10.74;79.72
48424;BME280;34232;42.502;26.014;2023-02-28T11:12:48;100974.41;;;10.62;79.72
48424;BME280;34232;42.502;26.014;2023-02-28T11:15:21;100984.00;;;10.50;79.88
48424;BME280;34232;42.502;26.014;2023-02-28T11:20:35;100988.47;;;10.09;81.43
48424;BME280;34232;42.502;26.014;2023-02-28T11:23:02;100990.22;;;9.96;82.75
48424;BME280;34232;42.502;26.014;2023-02-28T11:27:56;100987.06;;;9.76;83.74
48424;BME280;34232;42.502;26.014;2023-02-28T11:30:26;100980.88;;;9.77;84.24
48424;BME280;34232;42.502;26.014;2023-02-28T11:32:51;100978.44;;;9.74;84.71
48424;BME280;34232;42.502;26.014;2023-02-28T11:35:17;100981.16;;;9.87;85.05
48424;BME280;34232;42.502;26.014;2023-02-28T11:37:47;100981.44;;;9.82;83.40
48424;BME280;34232;42.502;26.014;2023-02-28T11:40:36;100967.91;;;9.89;83.61
48424;BME280;34232;42.502;26.014;2023-02-28T11:43:20;100969.63;;;9.75;83.63
48424;BME280;34232;42.502;26.014;2023-02-28T11:48:52;100964.13;;;9.66;85.10
48424;BME280;34232;42.502;26.014;2023-02-28T11:51:27;100960.06;;;9.60;85.73
48424;BME280;34232;42.502;26.014;2023-02-28T11:56:23;100953.19;;;9.31;89.06
48424;BME280;34232;42.502;26.014;2023-02-28T12:01:42;100949.28;;;8.95;94.02
48424;BME280;34232;42.502;26.014;2023-02-28T12:04:17;100944.25;;;8.92;94.81
48424;BME280;34232;42.502;26.014;2023-02-28T12:07:00;100951.72;;;8.98;97.21
48424;BME280;34232;42.502;26.014;2023-02-28T12:09:46;100939.00;;;8.92;97.28
48424;BME280;34232;42.502;26.014;2023-02-28T12:25:59;100945.72;;;8.82;99.68
48424;BME280;34232;42.502;26.014;2023-02-28T12:28:28;100948.63;;;8.77;100.00
48424;BME280;34232;42.502;26.014;2023-02-28T12:33:24;100940.47;;;8.96;99.70
48424;BME280;34232;42.502;26.014;2023-02-28T12:35:55;100950.22;;;8.94;98.40
48424;BME280;34232;42.502;26.014;2023-02-28T12:44:00;100961.28;;;8.85;96.59
48424;BME280;34232;42.502;26.014;2023-02-28T12:46:32;100962.97;;;8.86;96.93
48424;BME280;34232;42.502;26.014;2023-02-28T12:48:59;100961.09;;;8.88;96.52
48424;BME280;34232;42.502;26.014;2023-02-28T12:51:25;100955.59;;;8.93;97.07
48424;BME280;34232;42.502;26.014;2023-02-28T12:59:08;100936.34;;;8.92;96.85
48424;BME280;34232;42.502;26.014;2023-02-28T13:01:46;100929.03;;;8.97;96.03
48424;BME280;34232;42.502;26.014;2023-02-28T13:06:45;100946.53;;;9.11;96.71
48424;BME280;34232;42.502;26.014;2023-02-28T13:09:20;100940.56;;;9.23;95.33
48424;BME280;34232;42.502;26.014;2023-02-28T13:11:49;100950.25;;;9.08;93.41
48424;BME280;34232;42.502;26.014;2023-02-28T13:19:27;100953.88;;;9.06;93.26
48424;BME280;34232;42.502;26.014;2023-02-28T13:21:54;100939.91;;;9.05;93.07
48424;BME280;34232;42.502;26.014;2023-02-28T13:24:36;100944.75;;;9.11;93.69
48424;BME280;34232;42.502;26.014;2023-02-28T13:29:28;100946.94;;;9.05;93.64
48424;BME280;34232;42.502;26.014;2023-02-28T13:34:36;100950.88;;;8.98;93.65
48424;BME280;34232;42.502;26.014;2023-02-28T13:39:55;100945.81;;;8.95;94.51
48424;BME280;34232;42.502;26.014;2023-02-28T13:47:27;100950.41;;;9.20;93.80
48424;BME280;34232;42.502;26.014;2023-02-28T13:49:53;100957.16;;;9.24;93.17
48424;BME280;34232;42.502;26.014;2023-02-28T13:52:20;100953.19;;;9.31;91.87
48424;BME280;34232;42.502;26.014;2023-02-28T13:55:01;100956.09;;;9.26;91.34
48424;BME280;34232;42.502;26.014;2023-02-28T14:00:19;100962.13;;;9.14;91.61
48424;BME280;34232;42.502;26.014;2023-02-28T14:05:31;100941.63;;;8.92;93.62
48424;BME280;34232;42.502;26.014;2023-02-28T14:07:58;100939.53;;;8.69;93.14
48424;BME280;34232;42.502;26.014;2023-02-28T14:15:39;100935.78;;;8.73;93.09
48424;BME280;34232;42.502;26.014;2023-02-28T14:18:15;100944.59;;;8.72;93.28
48424;BME280;34232;42.502;26.014;2023-02-28T14:20:42;100948.91;;;8.73;92.78
48424;BME280;34232;42.502;26.014;2023-02-28T14:30:52;100943.66;;;8.59;93.89
48424;BME280;34232;42.502;26.014;2023-02-28T14:33:27;100943.66;;;8.59;93.97
48424;BME280;34232;42.502;26.014;2023-02-28T14:36:04;100947.97;;;8.60;94.31
48424;BME280;34232;42.502;26.014;2023-02-28T14:38:32;100938.41;;;8.59;94.57
48424;BME280;34232;42.502;26.014;2023-02-28T14:41:00;100946.06;;;8.62;95.19
48424;BME280;34232;42.502;26.014;2023-02-28T14:43:28;100935.19;;;8.54;95.87
48424;BME280;34232;42.502;26.014;2023-02-28T14:45:57;100943.16;;;8.52;95.24
48424;BME280;34232;42.502;26.014;2023-02-28T14:48:23;100951.28;;;8.48;96.06
48424;BME280;34232;42.502;26.014;2023-02-28T14:50:51;100942.31;;;8.52;96.41
48424;BME280;34232;42.502;26.014;2023-02-28T14:53:20;100949.81;;;8.44;96.07
48424;BME280;34232;42.502;26.014;2023-02-28T14:55:47;100957.28;;;8.35;96.03
48424;BME280;34232;42.502;26.014;2023-02-28T15:01:09;100958.63;;;8.43;96.02
48424;BME280;34232;42.502;26.014;2023-02-28T15:03:36;100957.31;;;8.50;96.85
48424;BME280;34232;42.502;26.014;2023-02-28T15:06:06;100957.41;;;8.62;96.55
48424;BME280;34232;42.502;26.014;2023-02-28T15:08:32;100959.19;;;8.62;95.95